createdAt,value
2023-01-21T00:01:31.484Z,-0.30
2023-01-21T00:06:34.034Z,-0.60
2023-01-21T00:11:36.830Z,-0.40
2023-01-21T00:16:39.443Z,-0.60
2023-01-21T00:21:42.127Z,-0.60
2023-01-21T00:26:44.692Z,-0.70
2023-01-21T00:31:47.591Z,-0.80
2023-01-21T00:36:50.302Z,-0.50
2023-01-21T00:41:52.877Z,-1.00
2023-01-21T00:46:55.472Z,-0.90
2023-01-21T00:51:58.067Z,-0.90
2023-01-21T00:57:00.656Z,-0.90
2023-01-21T01:02:03.779Z,-0.90
2023-01-21T01:07:06.649Z,-0.80
2023-01-21T01:12:09.158Z,-0.80
2023-01-21T01:17:11.730Z,-0.70
2023-01-21T01:22:14.242Z,-0.30
2023-01-21T01:27:16.798Z,-0.60
2023-01-21T01:32:19.291Z,-0.60
2023-01-21T01:37:22.266Z,-0.60
2023-01-21T01:42:24.922Z,-0.10
2023-01-21T01:47:51.157Z,-0.40
2023-01-21T01:52:55.156Z,-0.50
2023-01-21T01:57:59.105Z,-0.30
2023-01-21T02:03:20.335Z,-0.40
2023-01-21T02:08:23.845Z,-0.10
2023-01-21T02:13:28.595Z,-0.30
2023-01-21T02:18:52.648Z,-0.40
2023-01-21T02:24:00.791Z,-0.10
2023-01-21T02:29:19.074Z,-0.20
2023-01-21T02:34:32.749Z,0.00
2023-01-21T02:39:41.088Z,-0.20
2023-01-21T02:44:50.687Z,-0.10
2023-01-21T02:50:28.558Z,-0.10
2023-01-21T02:55:35.650Z,0.00
2023-01-21T03:01:05.730Z,0.00
2023-01-21T03:06:20.048Z,0.00
2023-01-21T03:11:23.462Z,0.00
2023-01-21T03:16:49.671Z,0.10
2023-01-21T03:21:54.170Z,0.20
2023-01-21T03:27:00.208Z,0.40
2023-01-21T03:32:06.390Z,0.20
2023-01-21T03:37:14.820Z,0.00
2023-01-21T03:42:17.743Z,0.40
2023-01-21T03:47:26.515Z,1.20
2023-01-21T03:52:29.417Z,0.60
2023-01-21T03:57:31.894Z,0.60
2023-01-21T04:02:34.664Z,0.40
2023-01-21T04:07:37.195Z,0.30
2023-01-21T04:12:40.657Z,0.20
2023-01-21T04:17:43.104Z,0.50
2023-01-21T04:22:45.752Z,0.90
2023-01-21T04:27:48.207Z,1.00
2023-01-21T04:32:50.781Z,0.60
2023-01-21T04:37:53.346Z,0.50
2023-01-21T04:42:56.235Z,0.40
2023-01-21T04:47:58.844Z,0.90
2023-01-21T04:53:01.406Z,0.50
2023-01-21T04:58:04.015Z,0.40
2023-01-21T05:03:06.753Z,0.30
2023-01-21T05:08:09.195Z,0.30
2023-01-21T05:13:11.801Z,0.40
2023-01-21T05:18:14.338Z,0.40
2023-01-21T05:23:16.956Z,0.40
2023-01-21T05:28:19.461Z,0.40
2023-01-21T05:33:26.336Z,0.40
2023-01-21T05:38:29.367Z,0.90
2023-01-21T05:43:32.470Z,0.60
2023-01-21T05:48:35.057Z,0.50
2023-01-21T05:53:37.563Z,0.50
2023-01-21T05:58:40.147Z,0.80
2023-01-21T06:03:42.794Z,0.70
2023-01-21T06:08:45.278Z,0.70
2023-01-21T06:13:47.918Z,0.70
2023-01-21T06:18:50.534Z,0.60
2023-01-21T06:23:53.105Z,0.80
2023-01-21T06:28:57.184Z,1.00
2023-01-21T06:33:59.810Z,0.90
2023-01-21T06:39:02.321Z,1.00
2023-01-21T06:44:05.642Z,1.00
2023-01-21T06:49:08.185Z,1.10
2023-01-21T06:54:11.504Z,1.20
2023-01-21T06:59:14.113Z,1.10
2023-01-21T07:04:16.636Z,1.20
2023-01-21T07:09:19.843Z,1.40
2023-01-21T07:14:22.524Z,1.40
2023-01-21T07:19:25.041Z,1.60
2023-01-21T07:24:27.595Z,1.40
2023-01-21T07:29:30.160Z,1.30
2023-01-21T07:34:32.939Z,1.30
2023-01-21T07:39:35.527Z,1.40
2023-01-21T07:44:37.987Z,1.30
2023-01-21T07:49:41.104Z,1.40
2023-01-21T07:54:43.684Z,1.30
2023-01-21T07:59:46.230Z,1.30
2023-01-21T08:04:48.856Z,1.40
2023-01-21T08:09:51.447Z,1.40
2023-01-21T08:14:54.223Z,1.20
2023-01-21T08:19:57.391Z,1.30
2023-01-21T08:24:59.876Z,1.20
2023-01-21T08:30:02.340Z,1.20
2023-01-21T08:35:05.452Z,1.10
2023-01-21T08:40:08.791Z,1.20
2023-01-21T08:45:12.750Z,1.50
2023-01-21T08:50:16.717Z,1.30
2023-01-21T08:55:19.449Z,1.10
2023-01-21T09:00:23.891Z,1.10
2023-01-21T09:05:26.596Z,1.10
2023-01-21T09:10:47.592Z,0.90
2023-01-21T09:15:50.111Z,0.90
2023-01-21T09:20:52.981Z,1.20
2023-01-21T09:26:07.112Z,1.00
2023-01-21T09:31:13.905Z,1.50
2023-01-21T09:36:20.074Z,1.00
2023-01-21T09:41:40.475Z,1.20
2023-01-21T09:47:47.280Z,0.90
2023-01-21T09:52:59.944Z,0.90
2023-01-21T09:58:02.422Z,1.10
2023-01-21T10:03:05.081Z,1.10
2023-01-21T10:08:18.369Z,1.00
2023-01-21T10:13:42.392Z,0.90
2023-01-21T10:18:48.734Z,0.90
2023-01-21T10:24:01.169Z,0.90
2023-01-21T10:29:04.459Z,0.90
2023-01-21T10:34:14.997Z,1.30
2023-01-21T10:39:34.833Z,1.10
2023-01-21T10:45:15.485Z,1.20
2023-01-21T10:50:44.770Z,1.20
2023-01-21T10:55:59.143Z,1.50
2023-01-21T11:01:06.964Z,1.50
2023-01-21T11:06:13.488Z,1.50
2023-01-21T11:11:26.469Z,1.30
2023-01-21T11:16:45.403Z,1.20
2023-01-21T11:22:00.918Z,1.00
2023-01-21T11:27:03.574Z,0.90
2023-01-21T11:32:18.390Z,1.20
2023-01-21T11:37:26.400Z,1.30
2023-01-21T11:42:28.925Z,1.20
2023-01-21T11:47:53.763Z,1.00
2023-01-21T11:53:08.985Z,1.20
2023-01-21T11:58:23.835Z,0.90
2023-01-21T12:03:33.461Z,1.10
2023-01-21T12:08:38.732Z,1.00
2023-01-21T12:13:46.876Z,0.90
2023-01-21T12:19:03.100Z,1.00
2023-01-21T12:25:02.191Z,1.00
2023-01-21T12:30:16.521Z,1.10
2023-01-21T12:35:38.105Z,0.80
2023-01-21T12:40:46.657Z,0.70
2023-01-21T12:46:15.755Z,0.80
2023-01-21T12:51:27.399Z,2.00
2023-01-21T12:56:39.338Z,1.80
2023-01-21T13:01:53.597Z,1.50
2023-01-21T13:07:02.947Z,1.30
2023-01-21T13:12:17.352Z,1.50
2023-01-21T13:17:23.617Z,1.20
2023-01-21T13:23:05.056Z,1.10
2023-01-21T13:28:21.307Z,1.70
2023-01-21T13:33:35.517Z,1.70
2023-01-21T13:39:30.597Z,1.50
2023-01-21T13:44:45.197Z,1.60
2023-01-21T13:49:50.877Z,1.40
2023-01-21T13:55:13.039Z,1.30
2023-01-21T14:00:15.923Z,1.30
2023-01-21T14:05:34.639Z,1.20
2023-01-21T14:10:57.986Z,1.10
2023-01-21T14:16:09.790Z,1.30
2023-01-21T14:21:45.726Z,1.20
2023-01-21T14:26:51.317Z,1.40
2023-01-21T14:32:21.722Z,1.40
2023-01-21T14:37:45.550Z,1.40
2023-01-21T14:42:50.474Z,1.20
2023-01-21T14:47:54.869Z,1.20
2023-01-21T14:52:57.516Z,1.10
2023-01-21T14:58:01.821Z,1.10
2023-01-21T15:03:20.280Z,0.90
2023-01-21T15:08:28.072Z,1.30
2023-01-21T15:13:33.361Z,1.50
2023-01-21T15:18:51.056Z,1.30
2023-01-21T15:24:23.054Z,1.30
2023-01-21T15:29:34.214Z,1.70
2023-01-21T15:34:37.052Z,1.10
2023-01-21T15:39:39.559Z,0.70
2023-01-21T15:45:02.188Z,0.50
2023-01-21T15:50:49.354Z,0.50
2023-01-21T15:56:25.357Z,0.40
2023-01-21T16:01:30.993Z,2.20
2023-01-21T16:06:59.431Z,1.70
2023-01-21T16:12:39.300Z,1.40
2023-01-21T16:17:56.603Z,1.20
2023-01-21T16:23:02.662Z,1.30
2023-01-21T16:28:05.201Z,2.40
2023-01-21T16:33:15.936Z,2.00
2023-01-21T16:38:21.859Z,2.00
2023-01-21T16:43:27.361Z,1.80
2023-01-21T16:48:32.875Z,2.00
2023-01-21T16:53:35.406Z,2.20
2023-01-21T16:58:46.999Z,2.00
2023-01-21T17:03:49.687Z,2.70
2023-01-21T17:09:07.242Z,3.10
2023-01-21T17:14:10.520Z,2.70
2023-01-21T17:19:25.523Z,1.90
2023-01-21T17:24:43.893Z,1.10
2023-01-21T17:29:46.454Z,1.10
2023-01-21T17:35:12.628Z,1.50
2023-01-21T17:40:23.887Z,1.90
2023-01-21T17:45:31.546Z,2.40
2023-01-21T17:50:34.105Z,1.00
2023-01-21T17:55:38.334Z,1.40
2023-01-21T18:00:44.037Z,1.40
2023-01-21T18:05:46.913Z,1.00
2023-01-21T18:10:50.483Z,1.40
2023-01-21T18:15:54.272Z,1.70
2023-01-21T18:20:57.147Z,1.70
2023-01-21T18:25:59.896Z,1.40
2023-01-21T18:31:02.592Z,1.40
2023-01-21T18:36:06.363Z,1.40
2023-01-21T18:41:11.882Z,1.30
2023-01-21T18:46:16.484Z,1.30
2023-01-21T18:51:19.664Z,1.30
2023-01-21T18:56:22.653Z,1.10
2023-01-21T19:01:25.749Z,1.30
2023-01-21T19:06:28.982Z,1.50
2023-01-21T19:11:32.207Z,2.20
2023-01-21T19:16:35.198Z,2.70
2023-01-21T19:21:38.689Z,4.10
2023-01-21T19:26:41.931Z,3.30
2023-01-21T19:31:45.326Z,3.90
2023-01-21T19:36:48.955Z,4.40
2023-01-21T19:42:07.125Z,3.80
2023-01-21T19:47:19.648Z,3.50
2023-01-21T19:52:22.871Z,2.80
2023-01-21T19:57:25.906Z,3.00
2023-01-21T20:02:29.771Z,2.50
2023-01-21T20:07:32.768Z,2.90
2023-01-21T20:12:35.959Z,2.20
2023-01-21T20:17:46.359Z,1.80
2023-01-21T20:22:50.180Z,3.30
2023-01-21T20:27:59.589Z,2.80
2023-01-21T20:33:03.211Z,1.90
2023-01-21T20:38:11.553Z,2.40
2023-01-21T20:43:16.132Z,2.30
2023-01-21T20:48:28.358Z,2.10
2023-01-21T20:53:31.947Z,2.90
2023-01-21T20:58:35.164Z,2.10
2023-01-21T21:03:38.486Z,2.30
2023-01-21T21:08:42.189Z,1.90
2023-01-21T21:13:48.547Z,1.80
2023-01-21T21:18:52.079Z,2.70
2023-01-21T21:23:55.397Z,2.40
2023-01-21T21:29:00.545Z,3.00
2023-01-21T21:34:04.628Z,3.00
2023-01-21T21:39:08.143Z,2.90
2023-01-21T21:44:12.246Z,2.70
2023-01-21T21:49:15.739Z,3.20
2023-01-21T21:54:18.852Z,4.20
2023-01-21T21:59:21.910Z,3.90
2023-01-21T22:04:25.185Z,3.00
2023-01-21T22:09:28.455Z,2.60
2023-01-21T22:14:31.398Z,2.80
2023-01-21T22:19:36.280Z,2.60
2023-01-21T22:24:40.668Z,2.30
2023-01-21T22:29:43.498Z,2.40
2023-01-21T22:34:46.129Z,2.00
2023-01-21T22:39:48.692Z,2.50
2023-01-21T22:44:51.469Z,2.40
2023-01-21T22:49:54.066Z,3.10
2023-01-21T22:54:56.626Z,3.20
2023-01-21T23:00:01.033Z,4.00
2023-01-21T23:05:05.045Z,3.70
2023-01-21T23:10:07.918Z,3.80
2023-01-21T23:15:10.711Z,4.10
2023-01-21T23:20:13.393Z,3.70
2023-01-21T23:25:15.920Z,3.60
2023-01-21T23:30:19.041Z,2.80
2023-01-21T23:35:21.751Z,1.90
2023-01-21T23:40:24.228Z,2.50
2023-01-21T23:45:26.828Z,2.30
2023-01-21T23:50:29.314Z,2.70
2023-01-21T23:55:31.827Z,2.50
